Главная страница
METAR-TAF:

METAR-TAF

Аэропорты :

Турку, Финляндия

широта: 60-31N, долгота: 022-16E, высота над уровнем моря: 49 м

Текущие метеонаблюдения

Эта сводка был подготовлена 34 минут назад, в 16:20 UTC
Ветер 3 Узел от восточный
Температура 21°C
Влажность 43%
Давление 1010 hPa
Видимость 10 км и более
Нет облачности ниже 1500 м, и нет кучево-дождевой облачности

METAR: EFTU 221620Z AUTO 08003KT CAVOK 21/08 Q1010

Время: 19:54 (16:54 UTC)

Прогноз

Эта сводка был подготовлена 2 часа и 20 минут назад, в 14:34 UTC
Прогноз действительный с 22-го 15 UTC до 23-го 15 UTC
Ветер 3 Узел от восточно-северо-восточный
Видимость 10 км и более
Нет облачности ниже 1500 м, и нет кучево-дождевой облачности

TAF: EFTU 221434Z 2215/2315 07003KT CAVOK

Метеонаблюдения и прогнозы для более 4000 аэропортов (сводки METAR и TAF).

Имеющиеся станции представлены на карте желтыми и красными точками.

Чтобы увидеть название станции, наведите на нее мышь.

Затем щелкните, чтобы увидеть метеонаблюдения и метеопрогнозы.

Управление картой: чтобы увеличить масштаб, щелкните зеленые кнопки с черным крестиком; чтобы уменьшить масштаб, щелкните зеленую кнопку с тире; для просмотра соседних карт щелкайте зеленые стрелки.


METAR-TAF: